Ashville, AL

8:54 AM CDT on November 01, 2014 (GMT -0500)
KALASHVI3 | Change Station
CLOSE
Current Station
Personal Weather Station
Location: Ashville, AL
Elevation: 646 ft
Nearby Weather Stations
Active Advisory: Freeze Warning

Elev 646 ft 33.81 °N, 86.25 °W | Updated 32 seconds ago

Overcast
Overcast
38.6 °F
Feels Like 33 °F
N
8.0
Wind Variable Wind from NNW
Gusts 14.0 mph

Today
High -- | Low -- °F
--% Chance of Precip.
Yesterday
High -- | Low -- °F
Precip. -- in
7:04 AM 5:52 PM
Waxing Gibbous, 66% visible
Pressure 30.16 in
Visibility 10.0 miles
Clouds Few 3500 ft
Windchill 33 °F
Dew Point 28 °F
Humidity 66%
Rainfall 0.00 in
Snow Depth Not available.
UV 1 out of 12
Pollen 1.20 out of 12
Air Quality Not available.
Flu Activity Not available.
METAR KGAD 011335Z 33014G22KT 10SM FEW035 04/M04 A3016 RMK AO1

More Conditions Fewer Conditions

Pressure 30.16 in
Visibility 10.0 miles
Clouds Few 3500 ft
Windchill 33 °F
Dew Point 28 °F
Humidity 66%
Rainfall 0.00 in
Snow Depth Not available.
UV 1 out of 12
Pollen 1.20 out of 12
Air Quality Not available.
Flu Activity Not available.
METAR KGAD 011335Z 33014G22KT 10SM FEW035 04/M04 A3016 RMK AO1

More Conditions Fewer Conditions

10-Day Weather Forecast

Almanac

Astronomy

Nov. 01, 2014 Rise Set
Actual Time
Civil Twilight
Nautical Twilight
Astronomical Twilight
Moon
Length of Visible Light
Length of Day
Tomorrow will be .
, % of the Moon is Illuminated

Today's Extremes

State Highs State Lows

Community

WunderPhotos

Upload Photos

1,766,937 photos uploaded!

WunderBlogs® & News

Nearby

Air Quality

  Air Quality AQ Index Pollutant
Not available.

Snow Depth

Station Depth Elevation

Earthquake Activity

City Distance Mag. Time & Date
Minimum magnitude displayed is 2.5.

Coastal Water Temperatures

Place Temperature

Nearby Weather Stations